createdAt,value
2018-02-10T00:00:35.182Z,50.30
2018-02-10T00:03:02.700Z,45.07
2018-02-10T00:05:30.626Z,44.10
2018-02-10T00:07:58.160Z,44.53
2018-02-10T00:10:26.062Z,52.53
2018-02-10T00:12:53.658Z,48.07
2018-02-10T00:15:21.162Z,45.87
2018-02-10T00:17:48.780Z,42.20
2018-02-10T00:20:16.283Z,43.30
2018-02-10T00:22:48.282Z,50.10
2018-02-10T00:25:15.786Z,44.97
2018-02-10T00:27:43.308Z,47.47
2018-02-10T00:30:11.217Z,44.63
2018-02-10T00:32:39.150Z,46.07
2018-02-10T00:35:07.496Z,47.27
2018-02-10T00:37:35.106Z,64.67
2018-02-10T00:40:02.632Z,45.77
2018-02-10T00:42:30.667Z,52.97
2018-02-10T00:44:58.173Z,43.97
2018-02-10T00:47:25.698Z,61.37
2018-02-10T00:49:53.203Z,40.77
2018-02-10T00:52:20.818Z,40.03
2018-02-10T00:54:48.340Z,57.07
2018-02-10T00:57:17.242Z,42.17
2018-02-10T00:59:45.138Z,61.67
2018-02-10T01:02:13.050Z,37.87
2018-02-10T01:04:40.980Z,41.73
2018-02-10T01:07:08.688Z,41.80
2018-02-10T01:09:36.202Z,41.60
2018-02-10T01:12:03.794Z,42.00
2018-02-10T01:14:31.722Z,40.07
2018-02-10T01:16:59.228Z,35.80
2018-02-10T01:19:26.771Z,42.30
2018-02-10T01:21:54.274Z,41.67
2018-02-10T01:24:22.201Z,40.83
2018-02-10T01:26:49.758Z,41.63
2018-02-10T01:29:17.674Z,41.60
2018-02-10T01:31:45.183Z,55.23
2018-02-10T01:34:12.711Z,48.97
2018-02-10T01:36:40.213Z,38.57
2018-02-10T01:39:07.735Z,45.80
2018-02-10T01:41:35.239Z,43.60
2018-02-10T01:44:02.773Z,40.63
2018-02-10T01:46:30.681Z,56.77
2018-02-10T01:48:58.609Z,39.57
2018-02-10T01:51:26.142Z,43.83
2018-02-10T01:53:53.639Z,54.63
2018-02-10T01:56:21.566Z,48.47
2018-02-10T01:58:49.066Z,39.63
2018-02-10T02:01:16.585Z,40.73
2018-02-10T02:03:44.484Z,39.60
2018-02-10T02:06:12.093Z,40.93
2018-02-10T02:08:39.599Z,47.67
2018-02-10T02:11:07.516Z,55.47
2018-02-10T02:13:35.014Z,44.63
2018-02-10T02:16:02.569Z,37.93
2018-02-10T02:18:30.488Z,41.20
2018-02-10T02:20:58.015Z,44.13
2018-02-10T02:23:25.520Z,42.70
2018-02-10T02:25:53.051Z,43.60
2018-02-10T02:28:21.016Z,41.97
2018-02-10T02:30:48.671Z,38.97
2018-02-10T02:33:16.178Z,48.77
2018-02-10T02:35:43.714Z,41.23
2018-02-10T02:38:11.233Z,49.70
2018-02-10T02:40:39.523Z,39.37
2018-02-10T02:43:07.023Z,53.40
2018-02-10T02:45:34.547Z,36.43
2018-02-10T02:48:03.182Z,38.07
2018-02-10T02:50:31.091Z,38.87
2018-02-10T02:52:59.972Z,55.40
2018-02-10T02:55:27.903Z,42.17
2018-02-10T02:57:56.186Z,39.13
2018-02-10T03:00:23.854Z,46.10
2018-02-10T03:02:52.159Z,37.47
2018-02-10T03:05:20.458Z,35.97
2018-02-10T03:07:48.477Z,39.13
2018-02-10T03:10:15.987Z,44.87
2018-02-10T03:12:43.982Z,36.83
2018-02-10T03:15:11.536Z,45.53
2018-02-10T03:17:39.022Z,39.60
2018-02-10T03:20:07.381Z,51.17
2018-02-10T03:22:34.902Z,39.57
2018-02-10T03:25:02.906Z,58.53
2018-02-10T03:27:30.823Z,32.97
2018-02-10T03:29:58.326Z,43.43
2018-02-10T03:32:26.606Z,41.10
2018-02-10T03:34:54.116Z,43.40
2018-02-10T03:37:21.645Z,37.07
2018-02-10T03:39:49.150Z,43.10
2018-02-10T03:42:16.668Z,43.07
2018-02-10T03:44:44.170Z,45.20
2018-02-10T03:47:11.694Z,33.10
2018-02-10T03:49:39.695Z,38.27
2018-02-10T03:52:07.218Z,37.70
2018-02-10T03:54:35.114Z,34.57
2018-02-10T03:57:03.043Z,39.90
2018-02-10T03:59:30.548Z,52.17
2018-02-10T04:01:58.058Z,44.77
2018-02-10T04:04:26.062Z,41.20
2018-02-10T04:06:53.974Z,44.27
2018-02-10T04:09:21.481Z,39.60
2018-02-10T04:11:49.435Z,38.00
2018-02-10T04:14:17.324Z,50.63
2018-02-10T04:16:44.958Z,35.97
2018-02-10T04:19:12.623Z,53.53
2018-02-10T04:21:40.546Z,35.30
2018-02-10T04:24:08.822Z,42.83
2018-02-10T04:26:36.826Z,41.47
2018-02-10T04:29:05.298Z,40.50
2018-02-10T04:31:32.951Z,44.00
2018-02-10T04:34:00.462Z,44.60
2018-02-10T04:36:27.991Z,43.53
2018-02-10T04:38:55.888Z,40.97
2018-02-10T04:41:23.498Z,37.13
2018-02-10T04:43:51.006Z,39.50
2018-02-10T04:46:18.704Z,52.43
2018-02-10T04:48:46.606Z,39.20
2018-02-10T04:51:14.216Z,35.17
2018-02-10T04:53:43.221Z,35.03
2018-02-10T04:56:10.786Z,36.60
2018-02-10T04:58:38.278Z,41.37
2018-02-10T05:01:05.775Z,36.17
2018-02-10T05:03:33.694Z,37.20
2018-02-10T05:06:01.208Z,38.17
2018-02-10T05:08:29.127Z,29.57
2018-02-10T05:10:56.627Z,36.10
2018-02-10T05:13:24.910Z,39.87
2018-02-10T05:15:52.454Z,39.93
2018-02-10T05:18:20.116Z,33.07
2018-02-10T05:20:47.622Z,36.80
2018-02-10T05:23:15.541Z,37.53
2018-02-10T05:25:43.098Z,38.20
2018-02-10T05:28:11.005Z,38.53
2018-02-10T05:30:38.602Z,35.83
2018-02-10T05:33:06.202Z,40.33
2018-02-10T05:35:33.699Z,42.60
2018-02-10T05:38:01.222Z,34.87
2018-02-10T05:40:29.120Z,41.63
2018-02-10T05:42:57.537Z,39.43
2018-02-10T05:45:25.632Z,34.13
2018-02-10T05:47:53.607Z,38.83
2018-02-10T05:50:21.520Z,37.47
2018-02-10T05:52:50.700Z,46.73
2018-02-10T05:55:19.196Z,45.27
2018-02-10T05:57:46.951Z,41.23
2018-02-10T06:00:14.465Z,29.10
2018-02-10T06:02:41.993Z,36.17
2018-02-10T06:05:09.491Z,40.33
2018-02-10T06:07:37.414Z,34.70
2018-02-10T06:10:04.947Z,36.47
2018-02-10T06:12:32.873Z,39.33
2018-02-10T06:15:00.962Z,36.47
2018-02-10T06:17:28.625Z,34.97
2018-02-10T06:19:56.131Z,39.37
2018-02-10T06:22:23.745Z,35.57
2018-02-10T06:24:51.630Z,38.90
2018-02-10T06:27:19.177Z,41.70
2018-02-10T06:29:46.715Z,39.43
2018-02-10T06:32:14.247Z,49.23
2018-02-10T06:34:42.244Z,35.50
2018-02-10T06:37:10.530Z,38.23
2018-02-10T06:39:38.039Z,33.20
2018-02-10T06:42:05.978Z,39.87
2018-02-10T06:44:33.882Z,41.40
2018-02-10T06:47:01.968Z,34.30
2018-02-10T06:49:29.492Z,40.27
2018-02-10T06:51:57.394Z,40.50
2018-02-10T06:54:25.762Z,35.37
2018-02-10T06:56:53.261Z,38.83
2018-02-10T06:59:20.892Z,38.67
2018-02-10T07:01:48.401Z,37.50
2018-02-10T07:04:16.397Z,40.20
2018-02-10T07:06:44.059Z,34.93
2018-02-10T07:09:11.590Z,38.23
2018-02-10T07:11:39.571Z,39.93
2018-02-10T07:14:07.107Z,39.87
2018-02-10T07:16:35.007Z,38.60
2018-02-10T07:19:02.552Z,32.60
2018-02-10T07:21:30.046Z,31.17
2018-02-10T07:23:57.871Z,34.00
2018-02-10T07:26:25.368Z,34.30
2018-02-10T07:28:52.893Z,31.27
2018-02-10T07:31:20.426Z,37.30
2018-02-10T07:33:47.937Z,36.77
2018-02-10T07:36:15.454Z,36.93
2018-02-10T07:38:43.092Z,41.07
2018-02-10T07:41:10.651Z,34.17
2018-02-10T07:43:39.325Z,36.60
2018-02-10T07:46:06.955Z,36.70
2018-02-10T07:48:34.661Z,46.87
2018-02-10T07:51:02.208Z,49.13
2018-02-10T07:53:30.154Z,40.43
2018-02-10T07:55:58.275Z,34.87
2018-02-10T07:58:25.782Z,37.97
2018-02-10T08:00:53.738Z,39.03
2018-02-10T08:03:21.242Z,40.37
2018-02-10T08:05:48.775Z,36.40
2018-02-10T08:08:16.281Z,37.70
2018-02-10T08:10:43.998Z,35.10
2018-02-10T08:13:11.894Z,38.47
2018-02-10T08:15:39.418Z,33.73
2018-02-10T08:18:06.960Z,39.13
2018-02-10T08:20:34.485Z,41.10
2018-02-10T08:23:02.750Z,36.80
2018-02-10T08:25:30.280Z,32.53
2018-02-10T08:27:57.808Z,34.93
2018-02-10T08:30:25.387Z,33.43
2018-02-10T08:32:53.674Z,32.80
2018-02-10T08:35:21.198Z,36.83
2018-02-10T08:37:48.730Z,32.83
2018-02-10T08:40:16.730Z,33.47
2018-02-10T08:42:44.770Z,32.67
2018-02-10T08:45:12.273Z,29.20
2018-02-10T08:47:39.794Z,34.93
2018-02-10T08:50:07.306Z,30.57
2018-02-10T08:52:34.842Z,36.37
2018-02-10T08:55:02.350Z,31.33
2018-02-10T08:57:29.921Z,29.77
2018-02-10T08:59:57.984Z,37.27
2018-02-10T09:02:25.514Z,36.10
2018-02-10T09:04:53.425Z,28.83
2018-02-10T09:07:21.346Z,28.40
2018-02-10T09:09:48.847Z,30.60
2018-02-10T09:12:17.517Z,29.03
2018-02-10T09:14:45.581Z,28.07
2018-02-10T09:17:13.233Z,32.23
2018-02-10T09:19:40.734Z,26.20
2018-02-10T09:22:08.749Z,26.10
2018-02-10T09:24:36.260Z,32.73
2018-02-10T09:27:03.786Z,31.03
2018-02-10T09:29:31.688Z,25.50
2018-02-10T09:31:59.606Z,27.17
2018-02-10T09:34:27.134Z,29.70
2018-02-10T09:36:54.706Z,33.20
2018-02-10T09:39:22.232Z,32.53
2018-02-10T09:41:50.144Z,28.93
2018-02-10T09:44:17.687Z,30.23
2018-02-10T09:46:45.580Z,32.07
2018-02-10T09:49:13.523Z,34.37
2018-02-10T09:51:41.042Z,34.40
2018-02-10T09:54:08.558Z,32.63
2018-02-10T09:56:36.461Z,24.53
2018-02-10T09:59:04.401Z,26.43
2018-02-10T10:01:32.742Z,31.57
2018-02-10T10:04:00.264Z,29.57
2018-02-10T10:06:27.836Z,25.83
2018-02-10T10:08:55.769Z,24.80
2018-02-10T10:11:23.676Z,27.70
2018-02-10T10:13:51.194Z,26.57
2018-02-10T10:16:19.104Z,30.50
2018-02-10T10:18:46.706Z,24.93
2018-02-10T10:21:14.632Z,27.97
2018-02-10T10:23:42.290Z,29.27
2018-02-10T10:26:10.213Z,20.63
2018-02-10T10:28:38.114Z,25.13
2018-02-10T10:31:06.063Z,25.43
2018-02-10T10:33:33.721Z,23.27
2018-02-10T10:36:01.367Z,20.27
2018-02-10T10:38:29.269Z,23.40
2018-02-10T10:40:56.908Z,24.77
2018-02-10T10:43:25.534Z,26.43
2018-02-10T10:45:53.430Z,22.63
2018-02-10T10:48:21.371Z,23.33
2018-02-10T10:50:48.889Z,23.87
2018-02-10T10:53:16.790Z,25.90
2018-02-10T10:55:44.704Z,20.33
2018-02-10T10:58:12.206Z,18.63
2018-02-10T11:00:40.223Z,28.43
2018-02-10T11:03:07.745Z,21.07
2018-02-10T11:05:36.116Z,28.73
2018-02-10T11:08:04.026Z,19.23
2018-02-10T11:10:32.412Z,24.90
2018-02-10T11:12:59.939Z,18.20
2018-02-10T11:15:27.447Z,22.63
2018-02-10T11:17:54.979Z,19.53
2018-02-10T11:20:22.514Z,23.93
2018-02-10T11:22:50.432Z,18.70
2018-02-10T11:25:18.443Z,22.37
2018-02-10T11:27:45.972Z,25.53
2018-02-10T11:30:13.861Z,20.90
2018-02-10T11:32:41.774Z,20.67
2018-02-10T11:35:09.290Z,22.73
2018-02-10T11:37:37.538Z,21.70
2018-02-10T11:40:05.041Z,18.20
2018-02-10T11:42:32.574Z,18.97
2018-02-10T11:45:00.078Z,16.60
2018-02-10T11:47:27.595Z,18.07
2018-02-10T11:49:55.093Z,19.63
2018-02-10T11:52:23.018Z,21.53
2018-02-10T11:54:50.918Z,19.70
2018-02-10T11:57:18.829Z,19.17
2018-02-10T11:59:46.327Z,19.00
2018-02-10T12:02:15.173Z,18.10
2018-02-10T12:04:43.445Z,18.03
2018-02-10T12:07:11.360Z,19.93
2018-02-10T12:09:38.955Z,22.10
2018-02-10T12:12:06.878Z,19.47
2018-02-10T12:14:34.384Z,17.20
2018-02-10T12:17:02.298Z,20.53
2018-02-10T12:19:29.998Z,20.83
2018-02-10T12:21:57.920Z,17.93
2018-02-10T12:24:25.545Z,17.63
2018-02-10T12:26:53.068Z,17.50
2018-02-10T12:29:20.565Z,18.30
2018-02-10T12:31:48.480Z,19.23
2018-02-10T12:34:16.154Z,17.17
2018-02-10T12:36:43.696Z,14.20
2018-02-10T12:39:12.099Z,18.77
2018-02-10T12:41:40.404Z,17.63
2018-02-10T12:44:08.358Z,18.77
2018-02-10T12:46:35.866Z,17.00
2018-02-10T12:52:08.197Z,19.57
2018-02-10T12:54:35.707Z,21.80
2018-02-10T12:57:03.619Z,21.97
2018-02-10T12:59:31.156Z,20.00
2018-02-10T13:01:59.095Z,19.97
2018-02-10T13:04:26.599Z,17.47
2018-02-10T13:06:54.125Z,17.50
2018-02-10T13:09:21.678Z,17.10
2018-02-10T13:11:49.170Z,17.63
2018-02-10T13:14:16.693Z,17.10
2018-02-10T13:16:44.601Z,30.63
2018-02-10T13:19:12.322Z,16.73
2018-02-10T13:21:39.975Z,18.77
2018-02-10T13:24:07.513Z,20.90
2018-02-10T13:26:35.084Z,18.27
2018-02-10T13:29:02.602Z,18.23
2018-02-10T13:31:30.504Z,21.87
2018-02-10T13:33:58.423Z,21.40
2018-02-10T13:36:26.327Z,25.37
2018-02-10T13:38:53.849Z,15.37
2018-02-10T13:41:21.354Z,15.43
2018-02-10T13:43:48.874Z,18.50
2018-02-10T13:46:16.376Z,18.03
2018-02-10T13:48:43.974Z,18.33
2018-02-10T13:51:11.662Z,19.93
2018-02-10T13:53:39.181Z,13.53
2018-02-10T13:56:07.078Z,18.07
2018-02-10T13:58:34.609Z,15.13
2018-02-10T14:01:02.298Z,17.13
2018-02-10T14:03:30.582Z,15.17
2018-02-10T14:05:58.091Z,15.30
2018-02-10T14:08:25.698Z,17.27
2018-02-10T14:10:53.598Z,17.03
2018-02-10T14:13:21.635Z,17.33
2018-02-10T14:15:49.157Z,16.50
2018-02-10T14:18:17.189Z,15.30
2018-02-10T14:20:44.686Z,16.27
2018-02-10T14:23:12.703Z,17.70
2018-02-10T14:25:40.199Z,14.73
2018-02-10T14:28:08.192Z,21.87
2018-02-10T14:30:36.096Z,12.27
2018-02-10T14:33:03.616Z,15.37
2018-02-10T14:35:31.527Z,12.40
2018-02-10T14:37:59.659Z,17.07
2018-02-10T14:40:27.155Z,18.37
2018-02-10T14:42:54.746Z,19.23
2018-02-10T14:45:22.413Z,18.67
2018-02-10T14:47:49.938Z,17.70
2018-02-10T14:50:17.938Z,15.10
2018-02-10T14:52:45.464Z,16.77
2018-02-10T14:55:13.470Z,16.27
2018-02-10T14:57:40.990Z,16.77
2018-02-10T15:00:08.895Z,16.47
2018-02-10T15:02:36.402Z,14.70
2018-02-10T15:05:04.493Z,13.07
2018-02-10T15:07:32.386Z,20.60
2018-02-10T15:10:01.258Z,21.80
2018-02-10T15:12:28.760Z,14.33
2018-02-10T15:14:56.291Z,17.73
2018-02-10T15:17:23.811Z,15.93
2018-02-10T15:19:51.722Z,20.87
2018-02-10T15:22:19.221Z,14.17
2018-02-10T15:24:47.515Z,15.50
2018-02-10T15:27:15.018Z,21.53
2018-02-10T15:29:54.139Z,16.20
2018-02-10T15:32:33.402Z,19.50
2018-02-10T15:35:01.314Z,21.90
2018-02-10T15:37:29.214Z,19.20
2018-02-10T15:39:56.898Z,18.20
2018-02-10T15:42:24.404Z,23.30
2018-02-10T15:44:52.310Z,21.50
2018-02-10T15:47:20.198Z,23.20
2018-02-10T15:49:47.726Z,20.60
2018-02-10T15:52:15.218Z,21.63
2018-02-10T15:54:42.734Z,23.70
2018-02-10T15:57:10.638Z,18.60
2018-02-10T15:59:38.915Z,22.23
2018-02-10T16:02:06.465Z,20.03
2018-02-10T16:04:34.005Z,19.37
2018-02-10T16:07:01.904Z,16.43
2018-02-10T16:09:30.422Z,23.67
2018-02-10T16:11:57.911Z,18.60
2018-02-10T16:14:25.569Z,18.30
2018-02-10T16:16:53.071Z,16.97
2018-02-10T16:19:20.609Z,16.97
2018-02-10T16:21:48.123Z,19.70
2018-02-10T16:24:15.634Z,16.53
2018-02-10T16:26:43.634Z,20.63
2018-02-10T16:29:11.171Z,18.03
2018-02-10T16:31:39.439Z,20.63
2018-02-10T16:34:06.963Z,22.20
2018-02-10T16:36:34.463Z,19.83
2018-02-10T16:39:01.995Z,25.60
2018-02-10T16:41:29.886Z,18.43
2018-02-10T16:43:57.796Z,21.27
2018-02-10T16:46:25.348Z,21.37
2018-02-10T16:48:53.265Z,23.17
2018-02-10T16:51:21.167Z,17.60
2018-02-10T16:53:48.720Z,23.97
2018-02-10T16:56:16.606Z,24.03
2018-02-10T16:58:44.445Z,16.27
2018-02-10T17:01:11.963Z,18.23
2018-02-10T17:03:39.459Z,17.33
2018-02-10T17:06:07.760Z,18.27
2018-02-10T17:08:35.266Z,19.70
2018-02-10T17:11:02.952Z,20.97
2018-02-10T17:13:30.859Z,20.83
2018-02-10T17:15:58.382Z,21.80
2018-02-10T17:18:25.895Z,20.97
2018-02-10T17:20:53.429Z,23.90
2018-02-10T17:23:21.446Z,31.97
2018-02-10T17:25:48.971Z,26.63
2018-02-10T17:28:17.254Z,28.57
2018-02-10T17:30:44.839Z,28.20
2018-02-10T17:33:12.491Z,23.67
2018-02-10T17:35:40.440Z,22.33
2018-02-10T17:38:08.372Z,26.67
2018-02-10T17:40:36.299Z,25.20
2018-02-10T17:43:03.820Z,20.63
2018-02-10T17:45:31.347Z,21.87
2018-02-10T17:47:58.855Z,25.07
2018-02-10T17:50:26.754Z,23.07
2018-02-10T17:52:54.690Z,27.37
2018-02-10T17:55:23.706Z,27.17
2018-02-10T17:57:52.364Z,28.50
2018-02-10T18:00:20.394Z,28.47
2018-02-10T18:02:48.331Z,29.43
2018-02-10T18:05:15.849Z,31.33
2018-02-10T18:07:43.787Z,31.20
2018-02-10T18:10:11.295Z,32.93
2018-02-10T18:12:38.835Z,29.37
2018-02-10T18:15:06.338Z,27.67
2018-02-10T18:17:34.260Z,28.07
2018-02-10T18:20:02.895Z,27.70
2018-02-10T18:22:30.451Z,28.83
2018-02-10T18:24:58.360Z,31.50
2018-02-10T18:27:25.890Z,31.87
2018-02-10T18:29:53.812Z,22.73
2018-02-10T18:32:21.527Z,28.47
2018-02-10T18:34:49.034Z,27.83
2018-02-10T18:37:17.704Z,26.33
2018-02-10T18:39:45.219Z,29.83
2018-02-10T18:42:12.774Z,31.67
2018-02-10T18:44:40.282Z,32.03
2018-02-10T18:47:07.791Z,31.90
2018-02-10T18:49:35.314Z,47.83
2018-02-10T18:52:03.065Z,41.37
2018-02-10T18:54:30.982Z,35.27
2018-02-10T18:56:58.875Z,37.17
2018-02-10T18:59:26.406Z,27.97
2018-02-10T19:01:53.919Z,26.93
2018-02-10T19:04:21.890Z,29.60
2018-02-10T19:06:49.965Z,34.50
2018-02-10T19:09:17.626Z,29.13
2018-02-10T19:11:45.529Z,27.63
2018-02-10T19:14:13.051Z,33.17
2018-02-10T19:16:41.899Z,27.53
2018-02-10T19:19:09.909Z,31.20
2018-02-10T19:21:37.407Z,32.43
2018-02-10T19:24:06.194Z,29.53
2018-02-10T19:26:33.885Z,31.23
2018-02-10T19:29:01.389Z,35.67
2018-02-10T19:31:28.910Z,29.17
2018-02-10T19:33:56.408Z,31.23
2018-02-10T19:36:24.335Z,27.97
2018-02-10T19:38:52.398Z,27.80
2018-02-10T19:41:20.313Z,27.63
2018-02-10T19:43:47.827Z,24.33
2018-02-10T19:46:16.169Z,27.60
2018-02-10T19:48:44.049Z,25.07
2018-02-10T19:51:13.102Z,28.17
2018-02-10T19:53:41.418Z,28.43
2018-02-10T19:56:09.325Z,22.33
2018-02-10T19:58:37.268Z,24.27
2018-02-10T20:01:04.779Z,24.77
2018-02-10T20:03:33.557Z,22.57
2018-02-10T20:06:01.470Z,26.23
2018-02-10T20:08:28.984Z,26.17
2018-02-10T20:10:56.922Z,46.43
2018-02-10T20:13:24.418Z,31.97
2018-02-10T20:15:51.935Z,26.47
2018-02-10T20:18:19.442Z,30.60
2018-02-10T20:20:47.259Z,47.13
2018-02-10T20:23:15.378Z,57.93
2018-02-10T20:25:42.906Z,32.00
2018-02-10T20:28:10.486Z,43.97
2018-02-10T20:30:39.377Z,27.33
2018-02-10T20:33:06.878Z,32.87
2018-02-10T20:35:34.402Z,24.63
2018-02-10T20:38:01.920Z,27.77
2018-02-10T20:40:29.595Z,24.50
2018-02-10T20:42:57.102Z,24.70
2018-02-10T20:45:25.009Z,26.43
2018-02-10T20:47:52.526Z,33.20
2018-02-10T20:50:20.229Z,24.27
2018-02-10T20:52:48.147Z,27.27
2018-02-10T20:55:16.063Z,24.27
2018-02-10T20:57:43.723Z,23.13
2018-02-10T21:00:11.283Z,24.83
2018-02-10T21:02:39.199Z,33.27
2018-02-10T21:05:06.706Z,20.80
2018-02-10T21:07:34.246Z,20.77
2018-02-10T21:10:02.523Z,23.93
2018-02-10T21:12:30.047Z,18.00
2018-02-10T21:14:57.945Z,22.33
2018-02-10T21:17:25.507Z,23.73
2018-02-10T21:19:53.032Z,19.07
2018-02-10T21:22:20.958Z,21.57
2018-02-10T21:24:48.670Z,21.77
2018-02-10T21:27:16.188Z,31.60
2018-02-10T21:29:44.080Z,19.77
2018-02-10T21:32:11.990Z,19.53
2018-02-10T21:34:40.266Z,19.20
2018-02-10T21:37:08.187Z,19.87
2018-02-10T21:39:35.699Z,20.13
2018-02-10T21:42:03.639Z,19.27
2018-02-10T21:44:31.208Z,16.60
2018-02-10T21:46:59.046Z,17.60
2018-02-10T21:49:27.335Z,18.60
2018-02-10T21:51:55.291Z,23.43
2018-02-10T21:54:23.564Z,16.70
2018-02-10T21:56:51.122Z,17.43
2018-02-10T21:59:18.632Z,21.23
2018-02-10T22:01:46.554Z,16.70
2018-02-10T22:04:14.098Z,16.20
2018-02-10T22:06:41.998Z,14.97
2018-02-10T22:09:09.498Z,16.87
2018-02-10T22:11:37.034Z,19.80
2018-02-10T22:14:04.532Z,17.10
2018-02-10T22:16:32.830Z,16.20
2018-02-10T22:19:00.728Z,19.80
2018-02-10T22:21:29.039Z,16.97
2018-02-10T22:23:56.538Z,18.03
2018-02-10T22:26:24.263Z,17.27
2018-02-10T22:28:51.771Z,20.70
2018-02-10T22:31:19.682Z,23.13
2018-02-10T22:33:47.187Z,20.53
2018-02-10T22:36:14.810Z,22.93
2018-02-10T22:38:42.322Z,19.20
2018-02-10T22:41:09.855Z,16.73
2018-02-10T22:43:37.843Z,19.03
2018-02-10T22:46:05.510Z,26.03
2018-02-10T22:48:33.455Z,22.40
2018-02-10T22:51:01.436Z,21.67
2018-02-10T22:53:28.946Z,22.23
2018-02-10T22:55:56.886Z,21.60
2018-02-10T22:58:24.388Z,21.40
2018-02-10T23:00:52.277Z,21.70
2018-02-10T23:03:19.935Z,21.47
2018-02-10T23:05:48.015Z,24.00
2018-02-10T23:08:15.925Z,25.33
2018-02-10T23:10:43.818Z,19.97
2018-02-10T23:13:11.730Z,23.10
2018-02-10T23:15:39.237Z,22.67
2018-02-10T23:18:06.762Z,24.33
2018-02-10T23:20:34.267Z,19.90
2018-02-10T23:23:01.795Z,23.83
2018-02-10T23:25:29.306Z,18.97
2018-02-10T23:27:56.831Z,20.27
2018-02-10T23:30:24.335Z,20.20
2018-02-10T23:32:51.855Z,24.77
2018-02-10T23:35:29.118Z,20.00
2018-02-10T23:37:57.595Z,19.13
2018-02-10T23:40:25.105Z,20.37
2018-02-10T23:42:52.635Z,23.93
2018-02-10T23:45:20.143Z,23.90
2018-02-10T23:47:48.070Z,22.47
2018-02-10T23:50:15.971Z,31.83
2018-02-10T23:52:43.901Z,22.30
2018-02-10T23:55:11.400Z,19.73
2018-02-10T23:57:38.973Z,20.80
